sensor_id;sensor_type;location;lat;lon;timestamp;pressure;altitude;pressure_sealevel;temperature;humidity
56713;BME280;42589;45.536;9.032;2023-01-28T00:02:24;99667.03;;;9.59;41.18
56713;BME280;42589;45.536;9.032;2023-01-28T00:05:26;99664.81;;;9.54;41.21
56713;BME280;42589;45.536;9.032;2023-01-28T00:08:28;99650.88;;;9.52;41.35
56713;BME280;42589;45.536;9.032;2023-01-28T00:11:30;99635.84;;;9.43;41.52
56713;BME280;42589;45.536;9.032;2023-01-28T00:14:31;99660.06;;;9.75;41.06
56713;BME280;42589;45.536;9.032;2023-01-28T00:17:32;99655.06;;;9.72;41.16
56713;BME280;42589;45.536;9.032;2023-01-28T00:20:33;99636.97;;;9.40;41.40
56713;BME280;42589;45.536;9.032;2023-01-28T00:23:36;99648.22;;;9.52;41.29
56713;BME280;42589;45.536;9.032;2023-01-28T00:26:38;99620.78;;;9.16;41.43
56713;BME280;42589;45.536;9.032;2023-01-28T00:29:39;99651.50;;;9.82;40.57
56713;BME280;42589;45.536;9.032;2023-01-28T00:32:40;99640.88;;;9.82;40.53
56713;BME280;42589;45.536;9.032;2023-01-28T00:35:41;99652.56;;;9.89;41.19
56713;BME280;42589;45.536;9.032;2023-01-28T00:38:42;99644.59;;;9.53;41.74
56713;BME280;42589;45.536;9.032;2023-01-28T00:41:42;99651.19;;;9.49;41.43
56713;BME280;42589;45.536;9.032;2023-01-28T00:44:44;99649.53;;;9.66;40.69
56713;BME280;42589;45.536;9.032;2023-01-28T00:47:45;99653.47;;;9.62;41.06
56713;BME280;42589;45.536;9.032;2023-01-28T00:50:47;99646.75;;;9.67;40.56
56713;BME280;42589;45.536;9.032;2023-01-28T00:53:48;99666.88;;;9.60;41.10
56713;BME280;42589;45.536;9.032;2023-01-28T00:56:48;99624.66;;;9.21;41.32
56713;BME280;42589;45.536;9.032;2023-01-28T00:59:49;99652.94;;;9.30;41.39
56713;BME280;42589;45.536;9.032;2023-01-28T01:02:50;99661.25;;;9.18;41.18
56713;BME280;42589;45.536;9.032;2023-01-28T01:05:51;99660.22;;;9.28;41.48
56713;BME280;42589;45.536;9.032;2023-01-28T01:08:53;99665.06;;;9.61;40.23
56713;BME280;42589;45.536;9.032;2023-01-28T01:11:53;99663.56;;;9.30;40.71
56713;BME280;42589;45.536;9.032;2023-01-28T01:14:56;99647.88;;;8.82;42.14
56713;BME280;42589;45.536;9.032;2023-01-28T01:17:57;99645.44;;;8.98;42.05
56713;BME280;42589;45.536;9.032;2023-01-28T01:20:57;99677.53;;;9.33;40.72
56713;BME280;42589;45.536;9.032;2023-01-28T01:23:59;99685.47;;;9.33;41.19
56713;BME280;42589;45.536;9.032;2023-01-28T01:27:00;99666.25;;;9.21;41.80
56713;BME280;42589;45.536;9.032;2023-01-28T01:30:03;99672.56;;;9.10;41.33
56713;BME280;42589;45.536;9.032;2023-01-28T01:33:04;99677.69;;;9.21;41.44
56713;BME280;42589;45.536;9.032;2023-01-28T01:36:06;99659.63;;;9.07;41.95
56713;BME280;42589;45.536;9.032;2023-01-28T01:39:11;99668.63;;;8.87;42.52
56713;BME280;42589;45.536;9.032;2023-01-28T01:42:13;99678.78;;;9.01;42.43
56713;BME280;42589;45.536;9.032;2023-01-28T01:45:14;99665.66;;;8.99;41.57
56713;BME280;42589;45.536;9.032;2023-01-28T01:51:29;99694.53;;;9.58;41.42
56713;BME280;42589;45.536;9.032;2023-01-28T01:54:33;99656.88;;;9.26;40.79
56713;BME280;42589;45.536;9.032;2023-01-28T01:57:35;99671.72;;;9.47;40.45
56713;BME280;42589;45.536;9.032;2023-01-28T02:00:36;99677.41;;;9.52;39.96
56713;BME280;42589;45.536;9.032;2023-01-28T02:03:52;99691.16;;;9.65;40.52
56713;BME280;42589;45.536;9.032;2023-01-28T02:06:56;99671.31;;;9.42;40.43
56713;BME280;42589;45.536;9.032;2023-01-28T02:09:58;99629.66;;;8.97;40.84
56713;BME280;42589;45.536;9.032;2023-01-28T02:12:59;99687.13;;;9.34;40.26
56713;BME280;42589;45.536;9.032;2023-01-28T02:16:04;99644.63;;;9.16;40.48
56713;BME280;42589;45.536;9.032;2023-01-28T02:19:06;99674.00;;;9.60;39.94
56713;BME280;42589;45.536;9.032;2023-01-28T02:22:24;99688.13;;;9.33;40.78
56713;BME280;42589;45.536;9.032;2023-01-28T02:29:07;99642.69;;;9.18;40.96
56713;BME280;42589;45.536;9.032;2023-01-28T02:32:20;99678.03;;;9.09;40.66
56713;BME280;42589;45.536;9.032;2023-01-28T02:35:37;99664.75;;;9.46;39.82
56713;BME280;42589;45.536;9.032;2023-01-28T02:38:45;99672.22;;;9.33;40.76
56713;BME280;42589;45.536;9.032;2023-01-28T02:42:21;99675.59;;;9.52;40.75
56713;BME280;42589;45.536;9.032;2023-01-28T02:45:30;99667.72;;;9.05;41.24
56713;BME280;42589;45.536;9.032;2023-01-28T02:48:52;99683.41;;;8.89;40.48
56713;BME280;42589;45.536;9.032;2023-01-28T02:55:22;99688.84;;;9.25;40.44
56713;BME280;42589;45.536;9.032;2023-01-28T02:58:36;99695.69;;;9.27;40.55
56713;BME280;42589;45.536;9.032;2023-01-28T03:01:43;99683.63;;;8.49;42.03
56713;BME280;42589;45.536;9.032;2023-01-28T03:08:33;99665.84;;;8.78;41.03
56713;BME280;42589;45.536;9.032;2023-01-28T03:12:13;99694.88;;;8.80;41.22
56713;BME280;42589;45.536;9.032;2023-01-28T03:15:40;99695.53;;;8.92;41.12
56713;BME280;42589;45.536;9.032;2023-01-28T03:19:00;99683.78;;;8.57;41.37
56713;BME280;42589;45.536;9.032;2023-01-28T03:22:21;99700.63;;;8.75;41.29
56713;BME280;42589;45.536;9.032;2023-01-28T03:25:43;99702.31;;;8.67;41.59
56713;BME280;42589;45.536;9.032;2023-01-28T03:29:07;99700.91;;;8.53;42.03
56713;BME280;42589;45.536;9.032;2023-01-28T03:32:28;99671.16;;;8.78;41.23
56713;BME280;42589;45.536;9.032;2023-01-28T03:35:49;99703.06;;;8.96;40.57
56713;BME280;42589;45.536;9.032;2023-01-28T03:39:08;99700.31;;;8.78;41.18
56713;BME280;42589;45.536;9.032;2023-01-28T03:42:12;99699.78;;;8.55;41.65
56713;BME280;42589;45.536;9.032;2023-01-28T03:45:13;99666.16;;;8.66;40.68
56713;BME280;42589;45.536;9.032;2023-01-28T03:48:18;99714.06;;;9.01;40.90
56713;BME280;42589;45.536;9.032;2023-01-28T03:51:20;99710.81;;;9.17;40.66
56713;BME280;42589;45.536;9.032;2023-01-28T03:54:21;99706.25;;;9.00;40.73
56713;BME280;42589;45.536;9.032;2023-01-28T03:57:25;99697.22;;;8.93;40.98
56713;BME280;42589;45.536;9.032;2023-01-28T04:00:25;99677.03;;;8.63;41.44
56713;BME280;42589;45.536;9.032;2023-01-28T04:03:26;99712.50;;;8.42;42.15
56713;BME280;42589;45.536;9.032;2023-01-28T04:06:28;99723.16;;;8.89;40.97
56713;BME280;42589;45.536;9.032;2023-01-28T04:09:29;99730.59;;;8.76;40.89
56713;BME280;42589;45.536;9.032;2023-01-28T04:12:30;99719.44;;;8.72;41.67
56713;BME280;42589;45.536;9.032;2023-01-28T04:15:31;99674.81;;;8.68;41.48
56713;BME280;42589;45.536;9.032;2023-01-28T04:18:33;99724.16;;;8.88;41.24
56713;BME280;42589;45.536;9.032;2023-01-28T04:21:35;99727.22;;;8.83;42.45
56713;BME280;42589;45.536;9.032;2023-01-28T04:24:35;99720.78;;;8.96;41.83
56713;BME280;42589;45.536;9.032;2023-01-28T04:27:36;99726.38;;;8.93;41.62
56713;BME280;42589;45.536;9.032;2023-01-28T04:30:38;99661.03;;;8.54;40.66
56713;BME280;42589;45.536;9.032;2023-01-28T04:33:40;99739.84;;;9.09;40.45
56713;BME280;42589;45.536;9.032;2023-01-28T04:36:41;99724.28;;;8.87;41.13
56713;BME280;42589;45.536;9.032;2023-01-28T04:39:42;99707.88;;;8.64;40.81
56713;BME280;42589;45.536;9.032;2023-01-28T04:42:52;99730.84;;;8.92;41.81
56713;BME280;42589;45.536;9.032;2023-01-28T04:45:53;99742.56;;;8.90;41.64
56713;BME280;42589;45.536;9.032;2023-01-28T04:48:54;99743.56;;;8.79;41.50
56713;BME280;42589;45.536;9.032;2023-01-28T04:51:55;99729.03;;;8.83;41.51
56713;BME280;42589;45.536;9.032;2023-01-28T04:54:56;99734.66;;;8.70;41.48
56713;BME280;42589;45.536;9.032;2023-01-28T04:57:57;99752.97;;;9.11;40.98
56713;BME280;42589;45.536;9.032;2023-01-28T05:00:59;99754.91;;;9.18;40.36
56713;BME280;42589;45.536;9.032;2023-01-28T05:04:00;99766.44;;;9.37;40.22
56713;BME280;42589;45.536;9.032;2023-01-28T05:07:04;99771.03;;;9.72;40.88
56713;BME280;42589;45.536;9.032;2023-01-28T05:10:05;99772.72;;;9.26;40.43
56713;BME280;42589;45.536;9.032;2023-01-28T05:13:06;99754.97;;;8.99;40.72
56713;BME280;42589;45.536;9.032;2023-01-28T05:16:07;99773.25;;;9.02;41.01
56713;BME280;42589;45.536;9.032;2023-01-28T05:19:08;99772.97;;;8.95;40.10
56713;BME280;42589;45.536;9.032;2023-01-28T05:22:08;99787.78;;;8.49;41.55
56713;BME280;42589;45.536;9.032;2023-01-28T05:25:09;99776.44;;;8.18;42.12
56713;BME280;42589;45.536;9.032;2023-01-28T05:28:10;99798.03;;;8.04;42.97
56713;BME280;42589;45.536;9.032;2023-01-28T05:31:11;99795.19;;;8.46;42.81
56713;BME280;42589;45.536;9.032;2023-01-28T05:34:12;99787.72;;;8.01;42.73
56713;BME280;42589;45.536;9.032;2023-01-28T05:37:13;99767.09;;;8.04;42.93
56713;BME280;42589;45.536;9.032;2023-01-28T05:40:15;99810.50;;;8.71;40.81
56713;BME280;42589;45.536;9.032;2023-01-28T05:43:16;99776.06;;;8.42;41.28
56713;BME280;42589;45.536;9.032;2023-01-28T05:46:17;99813.44;;;8.78;41.73
56713;BME280;42589;45.536;9.032;2023-01-28T05:49:18;99796.41;;;8.32;42.35
56713;BME280;42589;45.536;9.032;2023-01-28T05:52:19;99809.31;;;8.06;42.88
56713;BME280;42589;45.536;9.032;2023-01-28T05:55:20;99823.50;;;8.55;42.61
56713;BME280;42589;45.536;9.032;2023-01-28T05:58:20;99818.75;;;8.49;42.04
56713;BME280;42589;45.536;9.032;2023-01-28T06:01:22;99843.22;;;8.22;42.65
56713;BME280;42589;45.536;9.032;2023-01-28T06:04:23;99850.25;;;8.52;41.69
56713;BME280;42589;45.536;9.032;2023-01-28T06:07:24;99842.88;;;8.65;41.50
56713;BME280;42589;45.536;9.032;2023-01-28T06:10:25;99823.56;;;8.34;41.89
56713;BME280;42589;45.536;9.032;2023-01-28T06:13:26;99856.28;;;8.13;42.46
56713;BME280;42589;45.536;9.032;2023-01-28T06:16:27;99850.53;;;8.39;41.62
56713;BME280;42589;45.536;9.032;2023-01-28T06:19:28;99859.75;;;8.64;41.08
56713;BME280;42589;45.536;9.032;2023-01-28T06:22:29;99860.22;;;8.19;41.75
56713;BME280;42589;45.536;9.032;2023-01-28T06:25:31;99857.47;;;8.40;41.50
56713;BME280;42589;45.536;9.032;2023-01-28T06:28:32;99861.97;;;8.49;41.11
56713;BME280;42589;45.536;9.032;2023-01-28T06:31:33;99864.66;;;8.09;42.72
56713;BME280;42589;45.536;9.032;2023-01-28T06:34:34;99824.44;;;7.84;41.06
56713;BME280;42589;45.536;9.032;2023-01-28T06:37:36;99828.47;;;7.88;42.23
56713;BME280;42589;45.536;9.032;2023-01-28T06:40:37;99830.16;;;7.89;41.80
56713;BME280;42589;45.536;9.032;2023-01-28T06:43:38;99861.28;;;8.07;42.24
56713;BME280;42589;45.536;9.032;2023-01-28T06:46:41;99875.03;;;8.31;41.91
56713;BME280;42589;45.536;9.032;2023-01-28T06:49:42;99883.84;;;8.42;42.21
56713;BME280;42589;45.536;9.032;2023-01-28T06:52:43;99849.13;;;7.64;42.58
56713;BME280;42589;45.536;9.032;2023-01-28T06:55:45;99854.19;;;8.07;42.08
56713;BME280;42589;45.536;9.032;2023-01-28T06:58:45;99842.16;;;7.94;41.59
56713;BME280;42589;45.536;9.032;2023-01-28T07:01:46;99867.97;;;7.71;42.22
56713;BME280;42589;45.536;9.032;2023-01-28T07:04:47;99887.44;;;7.90;41.95
56713;BME280;42589;45.536;9.032;2023-01-28T07:07:48;99889.19;;;8.21;42.71
56713;BME280;42589;45.536;9.032;2023-01-28T07:10:49;99871.59;;;8.10;42.45
56713;BME280;42589;45.536;9.032;2023-01-28T07:13:50;99889.41;;;8.39;41.18
56713;BME280;42589;45.536;9.032;2023-01-28T07:16:51;99903.38;;;8.10;41.82
56713;BME280;42589;45.536;9.032;2023-01-28T07:19:51;99904.81;;;8.24;43.16
56713;BME280;42589;45.536;9.032;2023-01-28T07:22:53;99908.19;;;8.35;42.10
56713;BME280;42589;45.536;9.032;2023-01-28T07:25:53;99910.38;;;8.71;41.34
56713;BME280;42589;45.536;9.032;2023-01-28T07:28:55;99912.75;;;8.64;41.75
56713;BME280;42589;45.536;9.032;2023-01-28T07:31:55;99886.66;;;8.09;42.08
56713;BME280;42589;45.536;9.032;2023-01-28T07:34:57;99879.25;;;8.44;41.64
56713;BME280;42589;45.536;9.032;2023-01-28T07:37:59;99886.50;;;8.42;41.58
56713;BME280;42589;45.536;9.032;2023-01-28T07:41:00;99904.78;;;8.54;41.45
56713;BME280;42589;45.536;9.032;2023-01-28T07:44:01;99866.97;;;8.43;41.15
56713;BME280;42589;45.536;9.032;2023-01-28T07:47:04;99886.56;;;8.30;41.58
56713;BME280;42589;45.536;9.032;2023-01-28T07:50:05;99879.34;;;8.32;41.82
56713;BME280;42589;45.536;9.032;2023-01-28T07:53:10;99913.47;;;8.76;41.56
56713;BME280;42589;45.536;9.032;2023-01-28T07:56:11;99907.41;;;8.04;42.36
56713;BME280;42589;45.536;9.032;2023-01-28T07:59:12;99886.38;;;8.53;41.23
56713;BME280;42589;45.536;9.032;2023-01-28T08:02:13;99937.16;;;8.68;41.61
56713;BME280;42589;45.536;9.032;2023-01-28T08:05:19;99929.94;;;8.99;40.96
56713;BME280;42589;45.536;9.032;2023-01-28T08:08:20;99898.81;;;8.81;39.95
56713;BME280;42589;45.536;9.032;2023-01-28T08:11:21;99925.34;;;9.11;40.63
56713;BME280;42589;45.536;9.032;2023-01-28T08:14:24;99936.50;;;8.95;41.26
56713;BME280;42589;45.536;9.032;2023-01-28T08:17:27;99948.88;;;8.75;41.43
56713;BME280;42589;45.536;9.032;2023-01-28T08:20:29;99948.22;;;9.12;41.02
56713;BME280;42589;45.536;9.032;2023-01-28T08:23:31;99941.81;;;9.43;39.82
56713;BME280;42589;45.536;9.032;2023-01-28T08:26:34;99959.94;;;9.09;41.36
56713;BME280;42589;45.536;9.032;2023-01-28T08:29:36;99935.22;;;9.47;40.86
56713;BME280;42589;45.536;9.032;2023-01-28T08:32:37;99958.00;;;9.50;40.36
56713;BME280;42589;45.536;9.032;2023-01-28T08:35:39;99965.19;;;9.87;39.64
56713;BME280;42589;45.536;9.032;2023-01-28T08:38:42;99961.44;;;10.17;39.51
56713;BME280;42589;45.536;9.032;2023-01-28T08:41:43;99972.28;;;9.86;40.07
56713;BME280;42589;45.536;9.032;2023-01-28T08:44:45;99948.31;;;9.78;39.50
56713;BME280;42589;45.536;9.032;2023-01-28T08:47:55;99967.53;;;9.99;40.81
56713;BME280;42589;45.536;9.032;2023-01-28T08:50:58;99986.41;;;10.43;39.99
56713;BME280;42589;45.536;9.032;2023-01-28T08:53:59;99962.28;;;10.55;38.92
56713;BME280;42589;45.536;9.032;2023-01-28T08:57:00;99972.38;;;10.51;39.39
56713;BME280;42589;45.536;9.032;2023-01-28T09:00:01;99972.50;;;10.59;38.99
56713;BME280;42589;45.536;9.032;2023-01-28T09:03:03;99976.69;;;10.80;39.15
56713;BME280;42589;45.536;9.032;2023-01-28T09:06:04;99932.13;;;10.91;38.37
56713;BME280;42589;45.536;9.032;2023-01-28T09:09:06;99970.56;;;10.97;37.77
56713;BME280;42589;45.536;9.032;2023-01-28T09:12:06;99959.09;;;11.14;38.06
56713;BME280;42589;45.536;9.032;2023-01-28T09:15:09;99964.88;;;10.47;37.95
56713;BME280;42589;45.536;9.032;2023-01-28T09:18:10;99974.88;;;10.80;38.08
56713;BME280;42589;45.536;9.032;2023-01-28T09:21:13;100001.91;;;11.39;37.28
56713;BME280;42589;45.536;9.032;2023-01-28T09:24:19;100014.38;;;11.21;37.73
56713;BME280;42589;45.536;9.032;2023-01-28T09:27:19;99974.13;;;11.42;36.87
56713;BME280;42589;45.536;9.032;2023-01-28T09:30:20;99980.78;;;11.20;37.69
56713;BME280;42589;45.536;9.032;2023-01-28T09:33:21;99979.88;;;11.91;35.95
56713;BME280;42589;45.536;9.032;2023-01-28T09:36:22;99956.13;;;11.79;36.16
56713;BME280;42589;45.536;9.032;2023-01-28T09:39:22;99966.09;;;11.77;36.50
56713;BME280;42589;45.536;9.032;2023-01-28T09:43:01;100007.97;;;11.85;36.89
56713;BME280;42589;45.536;9.032;2023-01-28T09:46:10;99978.75;;;12.01;35.18
56713;BME280;42589;45.536;9.032;2023-01-28T09:49:31;100012.72;;;12.60;35.43
56713;BME280;42589;45.536;9.032;2023-01-28T09:52:36;100025.84;;;11.93;35.57
56713;BME280;42589;45.536;9.032;2023-01-28T09:55:40;100023.09;;;12.63;33.58
56713;BME280;42589;45.536;9.032;2023-01-28T09:58:43;100012.25;;;12.64;33.20
56713;BME280;42589;45.536;9.032;2023-01-28T10:05:09;100002.81;;;12.86;34.33
56713;BME280;42589;45.536;9.032;2023-01-28T10:18:10;100017.28;;;13.34;32.55
56713;BME280;42589;45.536;9.032;2023-01-28T10:21:19;99996.00;;;12.92;33.70
56713;BME280;42589;45.536;9.032;2023-01-28T10:24:29;100032.31;;;13.27;33.43
56713;BME280;42589;45.536;9.032;2023-01-28T10:27:33;100010.91;;;13.11;33.20
56713;BME280;42589;45.536;9.032;2023-01-28T10:30:40;100013.13;;;13.32;32.84
56713;BME280;42589;45.536;9.032;2023-01-28T10:33:48;99970.81;;;12.86;32.57
56713;BME280;42589;45.536;9.032;2023-01-28T10:36:49;100003.91;;;12.59;32.66
56713;BME280;42589;45.536;9.032;2023-01-28T10:39:53;100003.78;;;13.28;32.22
56713;BME280;42589;45.536;9.032;2023-01-28T10:42:56;100019.66;;;13.29;32.69
56713;BME280;42589;45.536;9.032;2023-01-28T10:49:12;100008.28;;;13.43;32.52
56713;BME280;42589;45.536;9.032;2023-01-28T10:52:15;99975.03;;;13.13;32.51
56713;BME280;42589;45.536;9.032;2023-01-28T10:55:15;100000.56;;;13.24;32.18
56713;BME280;42589;45.536;9.032;2023-01-28T10:58:26;99963.72;;;13.44;32.42
56713;BME280;42589;45.536;9.032;2023-01-28T11:01:44;99959.47;;;12.92;32.66
56713;BME280;42589;45.536;9.032;2023-01-28T11:04:47;99989.53;;;13.11;32.46
56713;BME280;42589;45.536;9.032;2023-01-28T11:07:48;99948.72;;;13.67;31.10
56713;BME280;42589;45.536;9.032;2023-01-28T11:10:50;99960.19;;;13.84;30.86
56713;BME280;42589;45.536;9.032;2023-01-28T11:13:52;99980.06;;;13.90;31.28
56713;BME280;42589;45.536;9.032;2023-01-28T11:16:55;99979.88;;;14.00;32.00
56713;BME280;42589;45.536;9.032;2023-01-28T11:20:00;99974.59;;;13.26;31.72
56713;BME280;42589;45.536;9.032;2023-01-28T11:23:01;99959.16;;;12.11;33.25
56713;BME280;42589;45.536;9.032;2023-01-28T11:26:14;99966.69;;;11.89;34.52
56713;BME280;42589;45.536;9.032;2023-01-28T11:29:26;99932.00;;;13.16;31.83
56713;BME280;42589;45.536;9.032;2023-01-28T11:32:28;99935.19;;;13.69;30.69
56713;BME280;42589;45.536;9.032;2023-01-28T11:35:30;99959.75;;;13.48;32.15
56713;BME280;42589;45.536;9.032;2023-01-28T11:38:32;99941.03;;;13.40;31.49
56713;BME280;42589;45.536;9.032;2023-01-28T11:41:35;99946.84;;;12.10;33.83
56713;BME280;42589;45.536;9.032;2023-01-28T11:44:37;99931.22;;;13.32;32.03
56713;BME280;42589;45.536;9.032;2023-01-28T11:51:03;99918.63;;;13.82;31.83
56713;BME280;42589;45.536;9.032;2023-01-28T11:54:58;99930.34;;;13.23;31.39
56713;BME280;42589;45.536;9.032;2023-01-28T12:04:39;99895.03;;;12.54;32.58
56713;BME280;42589;45.536;9.032;2023-01-28T12:11:07;99892.16;;;14.11;30.25
56713;BME280;42589;45.536;9.032;2023-01-28T12:14:26;99901.16;;;12.30;32.08
56713;BME280;42589;45.536;9.032;2023-01-28T12:21:04;99879.28;;;13.35;30.93
56713;BME280;42589;45.536;9.032;2023-01-28T12:34:29;99871.13;;;13.20;31.62
56713;BME280;42589;45.536;9.032;2023-01-28T12:37:57;99869.47;;;13.35;30.87
56713;BME280;42589;45.536;9.032;2023-01-28T12:41:14;99854.59;;;12.75;32.39
56713;BME280;42589;45.536;9.032;2023-01-28T12:44:37;99846.91;;;13.54;30.36
56713;BME280;42589;45.536;9.032;2023-01-28T12:48:02;99849.16;;;13.82;30.18
56713;BME280;42589;45.536;9.032;2023-01-28T12:51:14;99810.63;;;14.38;29.46
56713;BME280;42589;45.536;9.032;2023-01-28T12:54:23;99847.81;;;15.02;29.14
56713;BME280;42589;45.536;9.032;2023-01-28T12:57:27;99834.91;;;15.06;29.87
56713;BME280;42589;45.536;9.032;2023-01-28T13:00:33;99847.16;;;15.23;29.13
56713;BME280;42589;45.536;9.032;2023-01-28T13:03:57;99845.72;;;15.65;28.69
56713;BME280;42589;45.536;9.032;2023-01-28T13:07:12;99834.00;;;15.66;29.25
56713;BME280;42589;45.536;9.032;2023-01-28T13:10:37;99846.69;;;15.20;29.27
56713;BME280;42589;45.536;9.032;2023-01-28T13:13:41;99819.38;;;15.39;27.84
56713;BME280;42589;45.536;9.032;2023-01-28T13:16:42;99830.88;;;15.48;27.15
56713;BME280;42589;45.536;9.032;2023-01-28T13:19:43;99835.59;;;15.61;27.70
56713;BME280;42589;45.536;9.032;2023-01-28T13:22:44;99839.97;;;15.76;27.89
56713;BME280;42589;45.536;9.032;2023-01-28T13:25:50;99807.75;;;14.71;28.52
56713;BME280;42589;45.536;9.032;2023-01-28T13:28:52;99823.31;;;15.28;28.69
56713;BME280;42589;45.536;9.032;2023-01-28T13:31:56;99831.34;;;15.28;28.50
56713;BME280;42589;45.536;9.032;2023-01-28T13:35:00;99840.53;;;15.34;29.01
56713;BME280;42589;45.536;9.032;2023-01-28T13:38:12;99861.09;;;16.01;28.01
56713;BME280;42589;45.536;9.032;2023-01-28T13:41:16;99863.78;;;15.33;28.40
56713;BME280;42589;45.536;9.032;2023-01-28T13:44:31;99824.09;;;15.37;28.34
56713;BME280;42589;45.536;9.032;2023-01-28T13:47:36;99852.78;;;15.81;27.64
56713;BME280;42589;45.536;9.032;2023-01-28T13:50:42;99860.19;;;16.09;27.89
56713;BME280;42589;45.536;9.032;2023-01-28T13:53:53;99821.16;;;15.62;28.61
56713;BME280;42589;45.536;9.032;2023-01-28T14:16:29;99881.06;;;16.28;27.38
56713;BME280;42589;45.536;9.032;2023-01-28T14:19:36;99854.56;;;15.74;26.88
56713;BME280;42589;45.536;9.032;2023-01-28T14:22:40;99882.91;;;15.98;27.84
56713;BME280;42589;45.536;9.032;2023-01-28T14:26:14;99884.56;;;16.29;27.22
56713;BME280;42589;45.536;9.032;2023-01-28T14:29:39;99882.53;;;16.31;26.44
56713;BME280;42589;45.536;9.032;2023-01-28T14:32:48;99886.63;;;15.97;27.48
56713;BME280;42589;45.536;9.032;2023-01-28T14:35:51;99874.69;;;15.85;25.80
56713;BME280;42589;45.536;9.032;2023-01-28T14:38:54;99858.78;;;15.68;26.59
56713;BME280;42589;45.536;9.032;2023-01-28T14:41:58;99864.28;;;15.52;27.30
56713;BME280;42589;45.536;9.032;2023-01-28T14:48:31;99893.84;;;15.96;27.65
56713;BME280;42589;45.536;9.032;2023-01-28T14:54:46;99899.47;;;15.87;27.13
56713;BME280;42589;45.536;9.032;2023-01-28T14:58:02;99894.38;;;15.92;26.76
56713;BME280;42589;45.536;9.032;2023-01-28T15:01:27;99899.56;;;16.08;26.98
56713;BME280;42589;45.536;9.032;2023-01-28T15:04:30;99879.28;;;15.61;26.33
56713;BME280;42589;45.536;9.032;2023-01-28T15:07:31;99884.53;;;15.54;26.98
56713;BME280;42589;45.536;9.032;2023-01-28T15:10:35;99854.50;;;15.59;26.71
56713;BME280;42589;45.536;9.032;2023-01-28T15:13:38;99894.91;;;16.46;26.27
56713;BME280;42589;45.536;9.032;2023-01-28T15:16:40;99892.56;;;15.92;26.51
56713;BME280;42589;45.536;9.032;2023-01-28T15:19:46;99902.41;;;15.92;25.96
56713;BME280;42589;45.536;9.032;2023-01-28T15:22:47;99893.47;;;15.47;26.30
56713;BME280;42589;45.536;9.032;2023-01-28T15:25:48;99883.56;;;15.70;25.98
56713;BME280;42589;45.536;9.032;2023-01-28T15:28:51;99895.13;;;15.71;25.95
56713;BME280;42589;45.536;9.032;2023-01-28T15:31:52;99871.16;;;15.54;25.76
56713;BME280;42589;45.536;9.032;2023-01-28T15:34:53;99899.19;;;15.67;25.95
56713;BME280;42589;45.536;9.032;2023-01-28T15:37:54;99901.34;;;15.63;25.61
56713;BME280;42589;45.536;9.032;2023-01-28T15:40:57;99863.44;;;15.37;25.51
56713;BME280;42589;45.536;9.032;2023-01-28T15:43:58;99881.53;;;15.35;25.80
56713;BME280;42589;45.536;9.032;2023-01-28T15:47:01;99906.31;;;15.14;25.89
56713;BME280;42589;45.536;9.032;2023-01-28T15:50:05;99893.22;;;14.96;26.91
56713;BME280;42589;45.536;9.032;2023-01-28T15:53:07;99888.69;;;14.73;27.21
56713;BME280;42589;45.536;9.032;2023-01-28T15:56:10;99924.34;;;15.20;27.60
56713;BME280;42589;45.536;9.032;2023-01-28T16:02:24;99888.22;;;14.93;27.31
56713;BME280;42589;45.536;9.032;2023-01-28T16:11:41;99927.16;;;14.72;27.78
56713;BME280;42589;45.536;9.032;2023-01-28T16:14:48;99887.97;;;14.48;27.44
56713;BME280;42589;45.536;9.032;2023-01-28T16:17:50;99938.50;;;14.74;28.10
56713;BME280;42589;45.536;9.032;2023-01-28T16:20:52;99933.91;;;14.60;27.93
56713;BME280;42589;45.536;9.032;2023-01-28T16:24:00;99947.81;;;14.47;28.75
56713;BME280;42589;45.536;9.032;2023-01-28T16:27:17;99927.16;;;14.33;28.53
56713;BME280;42589;45.536;9.032;2023-01-28T16:30:19;99950.44;;;14.95;28.36
56713;BME280;42589;45.536;9.032;2023-01-28T16:33:21;99957.03;;;14.36;28.87
56713;BME280;42589;45.536;9.032;2023-01-28T16:36:22;99928.56;;;14.12;29.12
56713;BME280;42589;45.536;9.032;2023-01-28T16:39:23;99966.63;;;14.31;29.48
56713;BME280;42589;45.536;9.032;2023-01-28T16:42:25;99982.03;;;14.12;29.83
56713;BME280;42589;45.536;9.032;2023-01-28T16:45:26;99949.03;;;13.81;30.25
56713;BME280;42589;45.536;9.032;2023-01-28T16:48:28;99947.69;;;13.85;30.61
56713;BME280;42589;45.536;9.032;2023-01-28T16:51:30;99988.25;;;13.97;30.38
56713;BME280;42589;45.536;9.032;2023-01-28T16:54:32;99975.06;;;13.79;30.81
56713;BME280;42589;45.536;9.032;2023-01-28T16:57:34;99955.56;;;13.62;31.24
56713;BME280;42589;45.536;9.032;2023-01-28T17:00:35;99948.56;;;13.61;31.07
56713;BME280;42589;45.536;9.032;2023-01-28T17:03:37;99968.56;;;13.73;31.33
56713;BME280;42589;45.536;9.032;2023-01-28T17:06:40;99953.22;;;13.51;31.29
56713;BME280;42589;45.536;9.032;2023-01-28T17:09:41;99965.09;;;13.48;31.52
56713;BME280;42589;45.536;9.032;2023-01-28T17:12:43;99983.94;;;13.55;32.07
56713;BME280;42589;45.536;9.032;2023-01-28T17:15:44;100004.78;;;13.43;32.14
56713;BME280;42589;45.536;9.032;2023-01-28T17:18:49;99980.69;;;13.18;32.46
56713;BME280;42589;45.536;9.032;2023-01-28T17:21:50;99990.88;;;13.07;32.79
56713;BME280;42589;45.536;9.032;2023-01-28T17:24:51;100004.38;;;13.05;32.89
56713;BME280;42589;45.536;9.032;2023-01-28T17:27:53;99989.97;;;12.90;32.89
56713;BME280;42589;45.536;9.032;2023-01-28T17:30:54;99989.78;;;12.75;33.19
56713;BME280;42589;45.536;9.032;2023-01-28T17:33:56;100024.34;;;12.93;33.14
56713;BME280;42589;45.536;9.032;2023-01-28T17:36:57;100025.94;;;12.69;34.09
56713;BME280;42589;45.536;9.032;2023-01-28T17:39:59;99998.66;;;12.49;34.03
56713;BME280;42589;45.536;9.032;2023-01-28T17:43:00;100006.34;;;12.52;33.97
56713;BME280;42589;45.536;9.032;2023-01-28T17:46:09;100023.28;;;12.69;33.83
56713;BME280;42589;45.536;9.032;2023-01-28T17:49:13;100050.22;;;12.58;34.30
56713;BME280;42589;45.536;9.032;2023-01-28T17:52:13;100042.94;;;12.34;34.53
56713;BME280;42589;45.536;9.032;2023-01-28T17:55:15;100026.19;;;12.24;34.71
56713;BME280;42589;45.536;9.032;2023-01-28T17:58:17;100045.28;;;12.37;34.71